Date,TemperatureHighF,TemperatureAvgF,TemperatureLowF,DewpointHighF,DewpointAvgF,DewpointLowF,HumidityHigh,HumidityAvg,HumidityLow,PressureMaxIn,PressureMinIn,WindSpeedMaxMPH,WindSpeedAvgMPH,GustSpeedMaxMPH,PrecipitationSumIn
2013-5-1,75.5,63.1,48.4,48.5,40.6,33.1,80,47,26,30.15,30.01,17,6,17,0.00
2013-5-2,79.7,66.1,51.3,47.4,39.0,33.2,61,39,24,30.18,30.00,12,4,12,0.00
2013-5-3,72.0,63.1,54.8,45.2,38.6,32.3,52,41,28,30.12,30.00,25,12,25,0.00
2013-5-4,75.0,62.4,47.0,46.1,38.9,33.1,67,43,30,30.07,29.90,15,5,15,0.00
2013-5-5,77.1,64.1,51.2,48.3,39.7,28.8,69,44,20,29.98,29.84,17,7,17,0.00
2013-5-6,77.1,62.9,45.5,45.8,36.7,28.5,67,40,18,29.95,29.78,15,4,15,0.00
2013-5-7,79.9,67.6,53.4,55.9,47.2,38.8,82,51,25,29.88,29.75,14,4,14,0.00
2013-5-8,69.5,62.8,56.1,60.6,55.1,46.8,92,77,51,29.84,29.68,20,6,20,0.08
2013-5-9,70.5,61.8,54.8,58.2,54.1,49.6,94,77,50,29.70,29.61,18,5,18,0.00
2013-5-10,74.1,63.3,51.4,59.4,54.7,50.0,96,76,47,29.73,29.53,17,4,17,0.14
2013-5-11,64.5,57.1,50.6,59.8,53.3,46.2,93,87,81,29.54,29.40,25,7,25,0.10
2013-5-12,55.7,47.7,37.0,47.4,37.8,27.3,94,71,35,29.63,29.42,33,12,33,0.04
2013-5-13,49.9,41.8,37.0,35.2,30.4,26.4,90,65,42,29.84,29.62,29,13,29,0.02
2013-5-14,55.1,44.8,33.2,35.2,29.7,23.1,89,59,31,29.89,29.77,18,6,18,0.00
2013-5-15,67.6,51.4,37.7,55.2,40.9,28.5,86,68,52,29.77,29.31,32,10,32,0.02
2013-5-16,74.6,62.5,48.5,45.4,41.1,33.4,77,48,24,29.68,29.45,35,12,35,0.00
2013-5-17,66.5,55.4,42.6,45.5,41.4,37.0,83,61,41,29.98,29.68,17,6,17,0.00
2013-5-18,72.6,58.6,41.6,47.8,43.4,37.8,90,61,33,30.04,29.92,15,4,15,0.00
2013-5-19,61.3,57.5,55.0,57.1,52.1,46.8,91,82,69,29.97,29.85,14,7,14,0.03
2013-5-20,81.3,69.1,57.8,65.2,60.0,54.4,90,74,52,29.85,29.65,12,4,12,0.00
2013-5-21,85.0,72.2,63.9,69.8,64.7,61.3,95,79,56,29.66,29.49,21,4,21,0.79
2013-5-22,83.8,71.7,63.9,69.8,65.4,61.9,95,82,55,29.57,29.45,21,5,21,0.04
2013-5-23,77.0,68.5,62.3,64.8,61.5,57.6,95,79,60,29.53,29.44,31,7,31,0.26
2013-5-24,62.4,46.3,41.8,61.2,44.2,39.1,96,92,86,29.84,29.45,23,11,23,0.30
2013-5-25,50.1,45.6,42.9,42.3,40.4,38.3,94,83,67,29.85,29.79,24,9,24,0.13
2013-5-26,60.0,50.6,43.9,41.6,38.8,34.5,87,66,39,29.90,29.75,28,12,28,0.00
2013-5-27,67.4,55.3,41.0,43.3,37.4,31.5,85,54,27,29.99,29.89,21,8,21,0.00
2013-5-28,66.2,55.8,42.6,55.1,46.0,36.8,90,70,48,29.94,29.78,16,8,16,0.05
2013-5-29,79.8,65.3,56.4,68.3,61.2,54.4,96,88,63,29.78,29.64,29,7,29,0.86
2013-5-30,84.8,72.6,59.2,69.5,64.6,58.1,97,78,55,29.86,29.76,16,4,16,0.00
2013-5-31,89.0,77.7,64.5,69.2,65.5,62.3,94,69,42,29.84,29.66,15,4,15,0.00